createdAt,value
2019-05-10T00:00:29.712Z,2.27
2019-05-10T00:03:19.107Z,2.80
2019-05-10T00:06:08.122Z,2.20
2019-05-10T00:08:47.111Z,2.23
2019-05-10T00:11:31.784Z,2.40
2019-05-10T00:14:21.531Z,2.40
2019-05-10T00:16:55.624Z,2.40
2019-05-10T00:19:26.975Z,2.50
2019-05-10T00:21:58.291Z,2.40
2019-05-10T00:24:29.553Z,2.40
2019-05-10T00:27:00.941Z,2.73
2019-05-10T00:29:32.208Z,2.40
2019-05-10T00:32:03.158Z,2.67
2019-05-10T00:34:34.441Z,2.60
2019-05-10T00:37:05.718Z,2.50
2019-05-10T00:39:37.804Z,2.50
2019-05-10T00:42:09.604Z,2.37
2019-05-10T00:44:40.651Z,2.50
2019-05-10T00:47:12.005Z,2.47
2019-05-10T00:49:43.750Z,2.27
2019-05-10T00:52:15.374Z,2.30
2019-05-10T00:54:47.086Z,2.00
2019-05-10T00:57:18.084Z,2.13
2019-05-10T00:59:49.660Z,2.40
2019-05-10T01:02:20.866Z,2.10
2019-05-10T01:04:52.501Z,3.00
2019-05-10T01:07:24.708Z,2.40
2019-05-10T01:09:56.021Z,2.70
2019-05-10T01:12:27.441Z,2.50
2019-05-10T01:14:59.273Z,2.37
2019-05-10T01:17:30.599Z,2.60
2019-05-10T01:20:01.617Z,2.80
2019-05-10T01:22:32.607Z,3.10
2019-05-10T01:25:03.840Z,3.00
2019-05-10T01:27:35.276Z,3.30
2019-05-10T01:30:09.828Z,3.27
2019-05-10T01:32:41.550Z,3.30
2019-05-10T01:35:13.116Z,3.03
2019-05-10T01:37:44.539Z,3.23
2019-05-10T01:40:17.626Z,3.20
2019-05-10T01:42:48.880Z,2.80
2019-05-10T01:45:20.316Z,3.23
2019-05-10T01:47:52.206Z,2.80
2019-05-10T01:50:23.458Z,2.37
2019-05-10T01:52:54.120Z,2.67
2019-05-10T01:55:25.696Z,2.50
2019-05-10T01:57:57.586Z,2.70
2019-05-10T02:00:29.327Z,2.47
2019-05-10T02:03:00.544Z,2.63
2019-05-10T02:05:32.409Z,2.40
2019-05-10T02:08:03.334Z,2.40
2019-05-10T02:10:35.324Z,2.67
2019-05-10T02:13:07.199Z,2.90
2019-05-10T02:15:39.235Z,2.50
2019-05-10T02:18:10.690Z,2.50
2019-05-10T02:20:42.304Z,2.67
2019-05-10T02:23:13.608Z,2.80
2019-05-10T02:25:45.173Z,2.80
2019-05-10T02:28:16.427Z,3.07
2019-05-10T02:30:47.715Z,2.60
2019-05-10T02:33:18.990Z,3.30
2019-05-10T02:35:50.819Z,3.03
2019-05-10T02:38:22.820Z,2.83
2019-05-10T02:40:54.341Z,2.90
2019-05-10T02:43:26.273Z,2.50
2019-05-10T02:45:58.065Z,2.60
2019-05-10T02:48:30.249Z,2.37
2019-05-10T02:51:01.544Z,2.97
2019-05-10T02:53:32.468Z,2.93
2019-05-10T02:56:05.280Z,2.40
2019-05-10T02:58:36.829Z,2.30
2019-05-10T03:01:09.245Z,2.10
2019-05-10T03:03:42.630Z,2.47
2019-05-10T03:06:16.904Z,2.50
2019-05-10T03:08:53.113Z,2.20
2019-05-10T03:11:24.670Z,2.07
2019-05-10T03:13:56.300Z,2.50
2019-05-10T03:16:28.345Z,2.70
2019-05-10T03:18:59.794Z,2.60
2019-05-10T03:21:34.588Z,2.23
2019-05-10T03:24:06.161Z,2.60
2019-05-10T03:26:50.235Z,2.53
2019-05-10T03:29:12.017Z,2.40
2019-05-10T03:31:43.037Z,2.70
2019-05-10T03:34:13.989Z,2.80
2019-05-10T03:36:45.635Z,2.60
2019-05-10T03:39:16.691Z,2.73
2019-05-10T03:41:48.124Z,2.57
2019-05-10T03:44:19.927Z,2.60
2019-05-10T03:46:51.218Z,2.67
2019-05-10T03:49:22.806Z,2.90
2019-05-10T03:51:53.747Z,2.40
2019-05-10T03:54:25.274Z,2.80
2019-05-10T03:57:11.800Z,2.80
2019-05-10T03:59:29.785Z,2.70
2019-05-10T04:02:01.060Z,2.83
2019-05-10T04:04:32.172Z,2.90
2019-05-10T04:07:02.911Z,3.13
2019-05-10T04:09:34.151Z,3.20
2019-05-10T04:12:05.661Z,3.10
2019-05-10T04:14:36.966Z,2.83
2019-05-10T04:17:08.499Z,3.20
2019-05-10T04:19:40.200Z,2.60
2019-05-10T04:22:11.864Z,3.00
2019-05-10T04:24:43.189Z,2.77
2019-05-10T04:27:30.775Z,3.70
2019-05-10T04:29:47.771Z,4.90
2019-05-10T04:32:19.590Z,3.70
2019-05-10T04:34:50.871Z,3.63
2019-05-10T04:37:22.429Z,3.50
2019-05-10T04:39:54.005Z,3.70
2019-05-10T04:42:25.227Z,4.20
2019-05-10T04:44:57.119Z,3.90
2019-05-10T04:47:28.378Z,3.80
2019-05-10T04:50:00.046Z,3.80
2019-05-10T04:52:30.968Z,3.93
2019-05-10T04:55:02.858Z,3.80
2019-05-10T04:57:49.314Z,7.50
2019-05-10T05:00:09.235Z,13.77
2019-05-10T05:02:40.539Z,6.47
2019-05-10T05:05:12.220Z,5.73
2019-05-10T05:07:43.462Z,4.83
2019-05-10T05:10:14.767Z,5.20
2019-05-10T05:12:45.714Z,4.07
2019-05-10T05:15:17.077Z,4.83
2019-05-10T05:17:48.374Z,4.63
2019-05-10T05:20:20.187Z,4.70
2019-05-10T05:22:53.406Z,4.63
2019-05-10T05:25:25.271Z,4.70
2019-05-10T05:28:07.388Z,4.13
2019-05-10T05:30:29.122Z,4.23
2019-05-10T05:33:00.697Z,3.90
2019-05-10T05:35:32.276Z,4.03
2019-05-10T05:38:03.940Z,3.97
2019-05-10T05:40:35.196Z,3.80
2019-05-10T05:43:08.088Z,3.77
2019-05-10T05:45:40.412Z,3.70
2019-05-10T05:48:16.103Z,3.63
2019-05-10T05:50:44.793Z,3.80
2019-05-10T05:53:16.334Z,3.50
2019-05-10T05:55:48.229Z,3.57
2019-05-10T05:58:26.796Z,3.47
2019-05-10T06:00:53.372Z,3.67
2019-05-10T06:03:29.565Z,3.47
2019-05-10T06:05:57.059Z,3.33
2019-05-10T06:08:30.001Z,4.60
2019-05-10T06:11:01.323Z,8.40
2019-05-10T06:13:32.671Z,3.40
2019-05-10T06:16:06.395Z,3.20
2019-05-10T06:18:41.581Z,4.50
2019-05-10T06:21:09.803Z,2.97
2019-05-10T06:23:41.353Z,3.90
2019-05-10T06:26:21.139Z,3.20
2019-05-10T06:29:04.728Z,3.57
2019-05-10T06:31:18.920Z,3.33
2019-05-10T06:33:50.177Z,3.60
2019-05-10T06:36:20.809Z,3.57
2019-05-10T06:38:52.378Z,2.93
2019-05-10T06:41:23.376Z,3.67
2019-05-10T06:43:56.530Z,3.40
2019-05-10T06:46:29.299Z,3.20
2019-05-10T06:49:07.130Z,3.30
2019-05-10T06:51:32.852Z,3.57
2019-05-10T06:54:03.788Z,3.50
2019-05-10T06:56:35.401Z,2.90
2019-05-10T06:59:13.507Z,3.10
2019-05-10T07:01:45.950Z,3.57
2019-05-10T07:04:13.690Z,3.73
2019-05-10T07:06:44.369Z,2.93
2019-05-10T07:09:15.929Z,3.20
2019-05-10T07:11:47.484Z,3.23
2019-05-10T07:14:18.473Z,3.60
2019-05-10T07:16:49.528Z,3.20
2019-05-10T07:19:20.863Z,4.10
2019-05-10T07:21:52.757Z,3.57
2019-05-10T07:24:26.800Z,3.10
2019-05-10T07:27:02.079Z,3.77
2019-05-10T07:29:41.995Z,3.40
2019-05-10T07:32:03.960Z,4.13
2019-05-10T07:34:35.495Z,6.73
2019-05-10T07:37:07.349Z,6.83
2019-05-10T07:39:38.704Z,4.50
2019-05-10T07:42:09.687Z,3.63
2019-05-10T07:44:41.473Z,3.60
2019-05-10T07:47:14.447Z,3.60
2019-05-10T07:49:45.705Z,4.57
2019-05-10T07:52:17.240Z,4.50
2019-05-10T07:54:48.349Z,3.40
2019-05-10T07:57:24.940Z,4.10
2019-05-10T07:59:57.397Z,3.83
2019-05-10T08:02:26.131Z,3.37
2019-05-10T08:04:58.448Z,3.27
2019-05-10T08:07:30.181Z,3.60
2019-05-10T08:10:04.749Z,3.50
2019-05-10T08:12:35.228Z,3.70
2019-05-10T08:15:09.130Z,3.43
2019-05-10T08:17:45.357Z,3.53
2019-05-10T08:20:22.105Z,3.47
2019-05-10T08:22:46.903Z,3.77
2019-05-10T08:25:18.339Z,3.30
2019-05-10T08:27:55.035Z,2.80
2019-05-10T08:30:52.267Z,2.80
2019-05-10T08:33:16.310Z,3.37
2019-05-10T08:35:52.377Z,3.73
2019-05-10T08:38:21.888Z,3.93
2019-05-10T08:40:53.617Z,3.50
2019-05-10T08:43:24.945Z,3.67
2019-05-10T08:45:58.026Z,4.03
2019-05-10T08:48:29.414Z,3.60
2019-05-10T08:51:04.002Z,3.47
2019-05-10T08:53:33.724Z,3.40
2019-05-10T08:56:07.592Z,3.67
2019-05-10T08:58:37.460Z,3.80
2019-05-10T09:01:20.516Z,4.00
2019-05-10T09:03:42.100Z,3.50
2019-05-10T09:06:16.709Z,3.80
2019-05-10T09:08:46.739Z,3.03
2019-05-10T09:11:18.308Z,3.10
2019-05-10T09:13:49.589Z,3.30
2019-05-10T09:16:23.721Z,3.13
2019-05-10T09:18:54.652Z,3.07
2019-05-10T09:21:26.254Z,2.83
2019-05-10T09:24:01.475Z,2.90
2019-05-10T09:26:32.198Z,3.03
2019-05-10T09:29:03.942Z,3.33
2019-05-10T09:31:39.501Z,3.30
2019-05-10T09:34:08.743Z,2.60
2019-05-10T09:36:44.824Z,3.30
2019-05-10T09:39:21.238Z,3.03
2019-05-10T09:41:47.156Z,3.00
2019-05-10T09:44:18.699Z,3.70
2019-05-10T09:46:52.309Z,3.60
2019-05-10T09:49:23.509Z,4.20
2019-05-10T09:51:55.163Z,3.27
2019-05-10T09:54:29.529Z,3.43
2019-05-10T09:57:04.897Z,3.50
2019-05-10T09:59:36.939Z,2.63
2019-05-10T10:02:14.276Z,2.87
2019-05-10T10:04:41.380Z,3.07
2019-05-10T10:07:12.729Z,2.30
2019-05-10T10:09:45.651Z,2.53
2019-05-10T10:12:18.039Z,3.10
2019-05-10T10:14:49.629Z,3.07
2019-05-10T10:17:21.213Z,3.07
2019-05-10T10:19:52.819Z,3.07
2019-05-10T10:22:24.391Z,3.50
2019-05-10T10:25:00.426Z,3.57
2019-05-10T10:27:34.604Z,4.50
2019-05-10T10:30:01.453Z,5.10
2019-05-10T10:32:34.962Z,7.33
2019-05-10T10:35:07.880Z,3.97
2019-05-10T10:37:38.598Z,4.50
2019-05-10T10:40:09.999Z,3.70
2019-05-10T10:42:41.561Z,2.90
2019-05-10T10:45:12.993Z,3.50
2019-05-10T10:47:47.022Z,2.80
2019-05-10T10:50:17.803Z,4.30
2019-05-10T10:52:49.150Z,3.10
2019-05-10T10:55:21.006Z,2.93
2019-05-10T10:57:52.363Z,2.80
2019-05-10T11:00:38.454Z,2.73
2019-05-10T11:03:07.909Z,2.60
2019-05-10T11:05:39.687Z,2.70
2019-05-10T11:08:11.330Z,2.10
2019-05-10T11:10:42.983Z,1.83
2019-05-10T11:13:23.760Z,2.20
2019-05-10T11:15:47.767Z,2.07
2019-05-10T11:18:21.410Z,2.27
2019-05-10T11:20:54.039Z,2.60
2019-05-10T11:23:33.990Z,2.10
2019-05-10T11:25:58.545Z,2.00
2019-05-10T11:28:38.477Z,2.07
2019-05-10T11:31:02.272Z,2.33
2019-05-10T11:33:33.867Z,1.73
2019-05-10T11:36:08.567Z,1.63
2019-05-10T11:38:37.906Z,1.80
2019-05-10T11:41:13.537Z,1.87
2019-05-10T11:43:42.625Z,2.10
2019-05-10T11:46:14.407Z,1.80
2019-05-10T11:48:45.975Z,1.77
2019-05-10T11:51:17.665Z,1.90
2019-05-10T11:53:54.133Z,1.83
2019-05-10T11:56:27.407Z,1.70
2019-05-10T11:58:55.693Z,1.50
2019-05-10T12:01:27.650Z,1.83
2019-05-10T12:03:58.946Z,1.80
2019-05-10T12:06:32.007Z,1.87
2019-05-10T12:09:04.850Z,2.20
2019-05-10T12:11:43.156Z,2.50
2019-05-10T12:14:13.560Z,3.80
2019-05-10T12:16:42.599Z,2.47
2019-05-10T12:19:20.569Z,2.90
2019-05-10T12:21:46.810Z,3.07
2019-05-10T12:26:50.074Z,2.67
2019-05-10T12:27:18.731Z,2.90
2019-05-10T12:29:25.894Z,2.43
2019-05-10T12:31:57.473Z,3.00
2019-05-10T12:34:31.098Z,2.97
2019-05-10T12:37:08.098Z,2.93
2019-05-10T12:39:36.807Z,3.40
2019-05-10T12:42:08.363Z,3.77
2019-05-10T12:44:44.017Z,3.80
2019-05-10T12:47:15.401Z,4.07
2019-05-10T12:49:46.739Z,6.00
2019-05-10T12:52:18.026Z,4.50
2019-05-10T12:54:49.380Z,4.00
2019-05-10T12:57:21.194Z,4.10
2019-05-10T12:59:52.957Z,3.63
2019-05-10T13:02:24.115Z,3.53
2019-05-10T13:04:55.671Z,3.43
2019-05-10T13:07:26.391Z,3.30
2019-05-10T13:10:04.224Z,2.50
2019-05-10T13:12:30.386Z,3.00
2019-05-10T13:15:01.387Z,3.03
2019-05-10T13:17:32.839Z,3.20
2019-05-10T13:20:04.176Z,2.80
2019-05-10T13:22:37.575Z,3.27
2019-05-10T13:25:08.620Z,2.80
2019-05-10T13:27:40.226Z,2.53
2019-05-10T13:30:13.063Z,2.70
2019-05-10T13:32:44.650Z,2.50
2019-05-10T13:35:15.681Z,2.33
2019-05-10T13:37:47.209Z,2.13
2019-05-10T13:40:18.395Z,1.60
2019-05-10T13:42:49.657Z,1.33
2019-05-10T13:45:20.966Z,1.77
2019-05-10T13:47:52.192Z,1.70
2019-05-10T13:50:23.391Z,1.90
2019-05-10T13:52:54.669Z,1.53
2019-05-10T13:55:26.246Z,1.80
2019-05-10T13:57:56.923Z,1.80
2019-05-10T14:00:34.206Z,1.50
2019-05-10T14:03:04.991Z,1.70
2019-05-10T14:05:34.216Z,1.50
2019-05-10T14:08:05.821Z,1.87
2019-05-10T14:10:38.289Z,1.70
2019-05-10T14:13:09.572Z,1.50
2019-05-10T14:15:40.725Z,1.77
2019-05-10T14:18:12.679Z,1.70
2019-05-10T14:20:44.581Z,1.80
2019-05-10T14:23:17.776Z,2.20
2019-05-10T14:25:48.900Z,4.70
2019-05-10T14:28:20.141Z,1.80
2019-05-10T14:30:57.217Z,4.13
2019-05-10T14:33:24.717Z,4.83
2019-05-10T14:36:01.098Z,1.50
2019-05-10T14:38:29.159Z,1.80
2019-05-10T14:41:04.052Z,1.67
2019-05-10T14:43:34.016Z,1.40
2019-05-10T14:46:13.107Z,1.00
2019-05-10T14:48:38.925Z,1.60
2019-05-10T14:51:11.679Z,1.50
2019-05-10T14:53:43.888Z,1.30
2019-05-10T14:56:15.385Z,5.70
2019-05-10T14:58:46.394Z,6.30
2019-05-10T15:01:17.995Z,1.13
2019-05-10T15:03:49.585Z,1.60
2019-05-10T15:06:21.596Z,2.27
2019-05-10T15:08:52.908Z,2.47
2019-05-10T15:11:26.372Z,1.60
2019-05-10T15:13:57.143Z,1.00
2019-05-10T15:16:30.872Z,1.07
2019-05-10T15:19:02.779Z,1.17
2019-05-10T15:21:34.792Z,1.20
2019-05-10T15:24:05.904Z,1.30
2019-05-10T15:26:43.602Z,1.90
2019-05-10T15:29:15.143Z,1.20
2019-05-10T15:31:42.895Z,1.30
2019-05-10T15:34:14.483Z,1.43
2019-05-10T15:36:46.030Z,1.40
2019-05-10T15:39:17.662Z,1.40
2019-05-10T15:41:53.592Z,2.67
2019-05-10T15:44:30.191Z,1.70
2019-05-10T15:46:55.922Z,1.10
2019-05-10T15:49:27.394Z,1.40
2019-05-10T15:52:16.155Z,1.30
2019-05-10T15:54:32.522Z,1.20
2019-05-10T15:57:03.944Z,1.20
2019-05-10T15:59:35.819Z,1.30
2019-05-10T16:02:07.064Z,1.40
2019-05-10T16:04:38.087Z,1.27
2019-05-10T16:07:09.298Z,4.57
2019-05-10T16:09:42.112Z,2.70
2019-05-10T16:12:13.747Z,1.70
2019-05-10T16:14:46.428Z,1.47
2019-05-10T16:17:23.187Z,1.37
2019-05-10T16:19:58.891Z,1.10
2019-05-10T16:22:25.443Z,1.30
2019-05-10T16:25:00.858Z,1.23
2019-05-10T16:27:33.948Z,1.10
2019-05-10T16:30:03.703Z,1.43
2019-05-10T16:32:36.284Z,1.87
2019-05-10T16:35:12.843Z,1.23
2019-05-10T16:37:40.391Z,1.70
2019-05-10T16:40:12.907Z,4.67
2019-05-10T16:42:44.521Z,3.97
2019-05-10T16:45:16.274Z,2.10
2019-05-10T16:47:47.773Z,1.80
2019-05-10T16:50:20.114Z,1.77
2019-05-10T16:52:51.562Z,1.57
2019-05-10T16:55:22.804Z,1.60
2019-05-10T16:57:54.115Z,1.60
2019-05-10T17:00:26.671Z,1.50
2019-05-10T17:02:58.393Z,1.90
2019-05-10T17:05:29.982Z,1.90
2019-05-10T17:08:02.089Z,2.30
2019-05-10T17:10:34.744Z,1.87
2019-05-10T17:13:06.699Z,1.60
2019-05-10T17:15:40.038Z,2.07
2019-05-10T17:18:17.550Z,1.70
2019-05-10T17:20:50.746Z,2.60
2019-05-10T17:23:17.896Z,1.90
2019-05-10T17:25:49.813Z,2.60
2019-05-10T17:28:22.231Z,2.63
2019-05-10T17:30:53.817Z,2.30
2019-05-10T17:33:24.887Z,2.60
2019-05-10T17:36:07.495Z,2.33
2019-05-10T17:38:31.750Z,1.80
2019-05-10T17:41:02.707Z,2.17
2019-05-10T17:43:34.604Z,1.90
2019-05-10T17:46:05.951Z,1.63
2019-05-10T17:48:40.717Z,1.90
2019-05-10T17:51:12.340Z,2.00
2019-05-10T17:53:44.243Z,2.07
2019-05-10T17:56:15.967Z,2.20
2019-05-10T17:58:47.402Z,1.80
2019-05-10T18:01:19.156Z,2.33
2019-05-10T18:03:51.388Z,2.00
2019-05-10T18:06:24.512Z,1.83
2019-05-10T18:08:55.980Z,1.80
2019-05-10T18:11:27.761Z,1.83
2019-05-10T18:13:59.409Z,1.70
2019-05-10T18:16:31.630Z,2.13
2019-05-10T18:19:03.576Z,2.23
2019-05-10T18:21:35.797Z,3.83
2019-05-10T18:24:08.174Z,2.43
2019-05-10T18:26:39.994Z,2.53
2019-05-10T18:29:13.498Z,2.50
2019-05-10T18:31:54.529Z,2.10
2019-05-10T18:34:18.778Z,2.63
2019-05-10T18:36:52.094Z,2.70
2019-05-10T18:39:24.949Z,2.73
2019-05-10T18:41:57.168Z,2.50
2019-05-10T18:44:28.849Z,2.73
2019-05-10T18:47:00.682Z,2.40
2019-05-10T18:49:32.726Z,2.50
2019-05-10T18:52:06.642Z,2.33
2019-05-10T18:54:38.666Z,2.33
2019-05-10T18:57:15.532Z,3.40
2019-05-10T18:59:45.541Z,3.03
2019-05-10T19:02:18.215Z,2.77
2019-05-10T19:04:54.097Z,2.90
2019-05-10T19:07:24.735Z,3.23
2019-05-10T19:09:56.536Z,3.13
2019-05-10T19:12:29.424Z,3.00
2019-05-10T19:15:08.118Z,3.00
2019-05-10T19:17:35.699Z,3.00
2019-05-10T19:20:09.665Z,2.80
2019-05-10T19:22:42.804Z,2.97
2019-05-10T19:25:16.000Z,3.70
2019-05-10T19:27:50.888Z,3.70
2019-05-10T19:30:23.778Z,3.33
2019-05-10T19:32:58.040Z,4.17
2019-05-10T19:35:29.904Z,3.60
2019-05-10T19:38:02.661Z,3.50
2019-05-10T19:40:34.178Z,3.73
2019-05-10T19:43:06.004Z,3.57
2019-05-10T19:45:37.995Z,3.43
2019-05-10T19:48:10.702Z,3.20
2019-05-10T19:50:44.201Z,3.70
2019-05-10T19:53:15.457Z,3.27
2019-05-10T19:55:46.661Z,3.53
2019-05-10T19:58:20.144Z,3.60
2019-05-10T20:00:52.151Z,3.47
2019-05-10T20:03:24.119Z,3.50
2019-05-10T20:05:56.007Z,4.03
2019-05-10T20:08:28.238Z,3.80
2019-05-10T20:10:59.848Z,3.27
2019-05-10T20:13:32.466Z,3.70
2019-05-10T20:16:04.604Z,5.10
2019-05-10T20:18:36.459Z,14.60
2019-05-10T20:21:08.780Z,9.37
2019-05-10T20:23:41.305Z,4.63
2019-05-10T20:26:13.284Z,3.67
2019-05-10T20:28:44.810Z,3.43
2019-05-10T20:31:17.406Z,3.10
2019-05-10T20:33:49.435Z,3.13
2019-05-10T20:36:20.774Z,3.30
2019-05-10T20:38:52.482Z,3.47
2019-05-10T20:41:24.445Z,3.27
2019-05-10T20:43:55.675Z,3.30
2019-05-10T20:46:27.003Z,4.40
2019-05-10T20:48:58.649Z,3.50
2019-05-10T20:51:30.281Z,3.47
2019-05-10T20:54:01.989Z,3.77
2019-05-10T20:56:33.516Z,3.67
2019-05-10T20:59:05.557Z,3.43
2019-05-10T21:01:37.663Z,3.60
2019-05-10T21:04:09.691Z,3.63
2019-05-10T21:06:41.477Z,4.90
2019-05-10T21:09:13.209Z,4.60
2019-05-10T21:11:44.668Z,4.63
2019-05-10T21:14:16.223Z,4.13
2019-05-10T21:16:47.573Z,4.43
2019-05-10T21:19:20.024Z,6.00
2019-05-10T21:21:51.853Z,4.03
2019-05-10T21:24:23.462Z,4.03
2019-05-10T21:26:54.896Z,4.00
2019-05-10T21:29:26.996Z,4.67
2019-05-10T21:31:58.520Z,4.87
2019-05-10T21:34:30.455Z,12.30
2019-05-10T21:37:01.979Z,5.93
2019-05-10T21:39:33.181Z,4.40
2019-05-10T21:42:04.469Z,4.70
2019-05-10T21:44:36.060Z,4.73
2019-05-10T21:47:08.006Z,4.43
2019-05-10T21:49:39.744Z,4.40
2019-05-10T21:52:11.412Z,4.70
2019-05-10T21:54:43.079Z,5.00
2019-05-10T21:57:14.161Z,4.80
2019-05-10T21:59:45.726Z,4.67
2019-05-10T22:02:17.356Z,5.00
2019-05-10T22:04:48.309Z,4.93
2019-05-10T22:07:19.586Z,4.87
2019-05-10T22:09:51.431Z,4.73
2019-05-10T22:12:22.723Z,5.30
2019-05-10T22:14:54.180Z,5.00
2019-05-10T22:17:25.931Z,5.50
2019-05-10T22:19:57.530Z,5.50
2019-05-10T22:22:29.177Z,5.60
2019-05-10T22:25:01.242Z,5.93
2019-05-10T22:27:33.142Z,5.70
2019-05-10T22:30:05.533Z,5.27
2019-05-10T22:32:37.297Z,6.40
2019-05-10T22:35:08.365Z,5.53
2019-05-10T22:37:40.113Z,6.20
2019-05-10T22:40:13.235Z,6.40
2019-05-10T22:42:44.267Z,5.90
2019-05-10T22:45:15.962Z,5.57
2019-05-10T22:47:47.429Z,6.17
2019-05-10T22:50:19.346Z,5.73
2019-05-10T22:52:51.301Z,6.83
2019-05-10T22:55:23.291Z,6.30
2019-05-10T22:57:54.813Z,6.50
2019-05-10T23:00:26.019Z,6.67
2019-05-10T23:02:58.094Z,6.67
2019-05-10T23:05:30.051Z,6.50
2019-05-10T23:08:01.402Z,6.40
2019-05-10T23:10:33.294Z,6.37
2019-05-10T23:13:04.977Z,6.37
2019-05-10T23:15:37.042Z,6.80
2019-05-10T23:18:08.576Z,6.70
2019-05-10T23:20:40.186Z,6.50
2019-05-10T23:23:11.861Z,6.77
2019-05-10T23:25:43.455Z,6.00
2019-05-10T23:28:15.054Z,6.50
2019-05-10T23:30:46.633Z,7.20
2019-05-10T23:33:18.030Z,6.67
2019-05-10T23:35:49.117Z,7.00
2019-05-10T23:38:20.643Z,6.13
2019-05-10T23:40:51.947Z,6.30
2019-05-10T23:43:23.239Z,6.17
2019-05-10T23:45:55.174Z,7.30
2019-05-10T23:48:26.272Z,6.80
2019-05-10T23:50:57.946Z,6.77
2019-05-10T23:53:28.940Z,6.47
2019-05-10T23:56:00.533Z,6.17
2019-05-10T23:58:32.096Z,6.07
